Arcade, New York
Current Conditions -  °F | °C
As of 2:55 PM on Wednesday 26 Nov 2014 (Local Time) from KOLE Reporting Station
Light Snow Light Snow  
Wind Chill: 23°   Ceiling: 500
Heat Index: 28°   Visibility: 1.2mi
Dew Point: 28°   Wind: 5mph
Humidity: 100%   Direction: 20°NNE
Pressure: 29.99"   Gusts: NA
Location:  42.53°N, 78.42°W
Report Text: KOLE 261955Z AUTO 02004KT 1 1/4SM -SN OVC005 M02/M02 A2999 RMK AO2
Loading
Personal Weather Stations






























Interactive Weather Map New forecast layout! Learn more

10-Day Weather Forecast

Advertisements
Track Severe Weather on mobile